Time;durP1;ratioP1;P1;durP2;ratioP2;P2;SDS_P1;SDS_P2;PMS_P1;PMS_P2;Temp;Humidity;BMP_temperature;BMP_pressure;BME280_temperature;BME280_humidity;BME280_pressure;Samples;Min_cycle;Max_cycle;Signal;HPM_P1;HPM_P2
2022/06/19 00:02:00;;;;;;;;;;;16.50;92.60;;;;;;5110494;28;19969;-74
2022/06/19 00:04:27;;;;;;;;;;;16.50;92.90;;;;;;5074087;28;19926;-75
2022/06/19 00:06:53;;;;;;;;;;;16.40;93.10;;;;;;5028822;28;19925;-75
2022/06/19 00:09:18;;;;;;;;;;;16.30;93.40;;;;;;5088122;28;19947;-75
2022/06/19 00:11:44;;;;;;;;;;;16.30;93.20;;;;;;5077467;28;19927;-74
2022/06/19 00:14:09;;;;;;;;;;;16.30;93.10;;;;;;5101778;28;19923;-75
2022/06/19 00:16:35;;;;;;;;;;;16.20;93.10;;;;;;5110313;28;19947;-75
2022/06/19 00:19:01;;;;;;;;;;;16.20;92.70;;;;;;5109004;28;20324;-74
2022/06/19 00:21:27;;;;;;;;;;;16.20;92.60;;;;;;5085219;28;19926;-75
2022/06/19 00:23:52;;;;;;;;;;;16.10;92.30;;;;;;5007496;28;19925;-75
2022/06/19 00:26:18;;;;;;;;;;;16.10;92.30;;;;;;5017557;28;20378;-75
2022/06/19 00:28:46;;;;;;;;;;;16.10;92.00;;;;;;4994597;28;20641;-75
2022/06/19 00:31:12;;;;;;;;;;;16.00;92.50;;;;;;4994269;28;20290;-75
2022/06/19 00:33:37;;;;;;;;;;;16.00;93.00;;;;;;5086828;28;20176;-74
2022/06/19 00:36:03;;;;;;;;;;;15.90;93.30;;;;;;5018798;28;20319;-75
2022/06/19 00:38:29;;;;;;;;;;;15.90;93.70;;;;;;5045172;28;19924;-74
2022/06/19 00:40:55;;;;;;;;;;;15.90;93.90;;;;;;5066223;28;19992;-74
2022/06/19 00:43:21;;;;;;;;;;;15.90;94.00;;;;;;5078612;28;20421;-75
2022/06/19 00:45:50;;;;;;;;;;;15.90;94.00;;;;;;5086885;28;19975;-74
2022/06/19 00:48:17;;;;;;;;;;;15.90;94.50;;;;;;5069432;28;19959;-75
2022/06/19 00:50:44;;;;;;;;;;;15.90;94.60;;;;;;5010468;28;19934;-75
2022/06/19 00:53:16;;;;;;;;;;;15.80;95.00;;;;;;5028444;28;19924;-74
2022/06/19 00:55:43;;;;;;;;;;;15.80;94.90;;;;;;5110813;28;19923;-75
2022/06/19 00:58:13;;;;;;;;;;;15.80;95.40;;;;;;5023394;28;19992;-74
2022/06/19 01:00:40;;;;;;;;;;;15.80;96.30;;;;;;5074762;28;19924;-75
2022/06/19 01:03:11;;;;;;;;;;;15.80;96.40;;;;;;5027623;28;20001;-74
2022/06/19 01:05:37;;;;;;;;;;;15.80;96.70;;;;;;5105433;28;19924;-75
2022/06/19 01:08:03;;;;;;;;;;;15.90;97.10;;;;;;5108839;27;19924;-74
2022/06/19 01:10:30;;;;;;;;;;;15.90;96.80;;;;;;5089587;28;19941;-75
2022/06/19 01:12:56;;;;;;;;;;;15.90;97.10;;;;;;5003573;28;19972;-75
2022/06/19 01:15:23;;;;;;;;;;;15.90;97.30;;;;;;5017317;28;19961;-74
2022/06/19 01:17:51;;;;;;;;;;;15.80;97.60;;;;;;4995268;28;20431;-74
2022/06/19 01:20:17;;;;;;;;;;;15.90;97.70;;;;;;5021137;28;19986;-74
2022/06/19 01:22:42;;;;;;;;;;;15.90;97.60;;;;;;5047132;28;20006;-75
2022/06/19 01:25:19;;;;;;;;;;;15.90;97.40;;;;;;5039842;28;19929;-74
2022/06/19 01:30:34;;;;;;;;;;;15.80;99.00;;;;;;5084195;28;19980;-75
2022/06/19 01:33:01;;;;;;;;;;;15.90;99.40;;;;;;5090174;28;19969;-74
2022/06/19 01:35:28;;;;;;;;;;;15.90;99.80;;;;;;5096816;28;19951;-74
2022/06/19 01:37:54;;;;;;;;;;;15.80;99.90;;;;;;5056858;28;19923;-75
2022/06/19 01:40:21;;;;;;;;;;;15.90;99.90;;;;;;5109053;28;20331;-75
2022/06/19 01:42:47;;;;;;;;;;;15.90;99.90;;;;;;5089151;28;20386;-74
2022/06/19 01:45:13;;;;;;;;;;;15.90;99.90;;;;;;5103770;28;19928;-74
2022/06/19 01:47:40;;;;;;;;;;;15.90;99.90;;;;;;5007221;28;19933;-74
2022/06/19 01:50:07;;;;;;;;;;;15.90;99.90;;;;;;5009494;28;19925;-75
2022/06/19 01:52:33;;;;;;;;;;;15.90;99.90;;;;;;5009120;28;19925;-75
2022/06/19 01:55:10;;;;;;;;;;;15.90;99.90;;;;;;5066319;28;19946;-74
2022/06/19 01:57:39;;;;;;;;;;;15.80;99.90;;;;;;5059453;28;19929;-74
2022/06/19 02:00:05;;;;;;;;;;;15.80;99.90;;;;;;5055694;28;19924;-76
2022/06/19 02:02:33;;;;;;;;;;;15.70;99.90;;;;;;5105779;28;20351;-74
2022/06/19 02:04:59;;;;;;;;;;;15.70;99.90;;;;;;5107208;28;19930;-75
2022/06/19 02:07:26;;;;;;;;;;;15.60;99.90;;;;;;5108780;28;19924;-75
2022/06/19 02:09:52;;;;;;;;;;;15.60;99.90;;;;;;5107016;28;19931;-75
2022/06/19 02:12:18;;;;;;;;;;;15.60;99.90;;;;;;5073882;28;19931;-75
2022/06/19 02:14:44;;;;;;;;;;;15.50;99.90;;;;;;5108101;28;19923;-75
2022/06/19 02:17:25;;;;;;;;;;;15.50;99.90;;;;;;5041283;28;20034;-75
2022/06/19 02:19:52;;;;;;;;;;;15.50;99.90;;;;;;4996370;28;19982;-75
2022/06/19 02:22:17;;;;;;;;;;;15.50;99.90;;;;;;5008515;28;19925;-75
2022/06/19 02:24:43;;;;;;;;;;;15.40;99.90;;;;;;5008191;28;19936;-75
2022/06/19 02:27:09;;;;;;;;;;;15.40;99.90;;;;;;5007096;28;19937;-75
2022/06/19 02:29:35;;;;;;;;;;;15.40;99.90;;;;;;5005898;28;19960;-74
2022/06/19 02:32:01;;;;;;;;;;;15.40;99.90;;;;;;5028414;28;19972;-75
2022/06/19 02:34:29;;;;;;;;;;;15.40;99.90;;;;;;5038936;28;19959;-74
2022/06/19 02:36:56;;;;;;;;;;;15.40;99.90;;;;;;5040116;28;19938;-74
2022/06/19 02:39:37;;;;;;;;;;;15.40;99.90;;;;;;5108563;28;19930;-75
2022/06/19 02:42:22;;;;;;;;;;;15.30;99.90;;;;;;5106844;28;19931;-75
2022/06/19 02:44:51;;;;;;;;;;;15.40;99.90;;;;;;5041944;28;19930;-75
2022/06/19 02:47:17;;;;;;;;;;;15.30;99.90;;;;;;5075056;28;20403;-75
2022/06/19 02:49:43;;;;;;;;;;;15.30;99.90;;;;;;5006752;28;19936;-75
2022/06/19 02:52:10;;;;;;;;;;;15.30;99.90;;;;;;4990622;28;19930;-75
2022/06/19 02:54:36;;;;;;;;;;;15.20;99.90;;;;;;5009161;28;19925;-75
2022/06/19 02:57:02;;;;;;;;;;;15.20;99.90;;;;;;5009487;28;19932;-75
2022/06/19 02:59:27;;;;;;;;;;;15.20;99.90;;;;;;5009939;28;19929;-75
2022/06/19 03:01:53;;;;;;;;;;;15.20;99.90;;;;;;5009710;28;20634;-75
2022/06/19 03:04:26;;;;;;;;;;;15.20;99.90;;;;;;5090817;28;20014;-75
2022/06/19 03:06:52;;;;;;;;;;;15.10;99.90;;;;;;5109255;28;20426;-75
2022/06/19 03:09:18;;;;;;;;;;;15.20;99.90;;;;;;5111358;28;19959;-75
2022/06/19 03:11:44;;;;;;;;;;;15.10;99.90;;;;;;5107873;28;20012;-76
2022/06/19 03:14:10;;;;;;;;;;;15.00;99.90;;;;;;5110277;28;19953;-76
2022/06/19 03:16:35;;;;;;;;;;;14.90;99.90;;;;;;5106930;28;19924;-77
2022/06/19 03:19:01;;;;;;;;;;;14.80;99.90;;;;;;5108672;28;20323;-76
2022/06/19 03:21:27;;;;;;;;;;;14.70;99.90;;;;;;5104590;28;19923;-76
2022/06/19 03:23:53;;;;;;;;;;;14.70;99.90;;;;;;5105408;28;20432;-76
2022/06/19 03:26:19;;;;;;;;;;;14.60;99.90;;;;;;5102424;28;19924;-76
2022/06/19 03:28:44;;;;;;;;;;;14.50;99.90;;;;;;5087202;28;19923;-76
2022/06/19 03:31:15;;;;;;;;;;;14.50;99.90;;;;;;5102834;28;20027;-76
2022/06/19 03:33:41;;;;;;;;;;;14.50;99.90;;;;;;5023295;28;19924;-75
2022/06/19 03:36:07;;;;;;;;;;;14.40;99.90;;;;;;5075972;28;19923;-75
2022/06/19 03:38:32;;;;;;;;;;;14.40;99.90;;;;;;5112067;28;20645;-76
2022/06/19 03:40:58;;;;;;;;;;;14.40;99.90;;;;;;5109224;28;20358;-75
2022/06/19 03:43:23;;;;;;;;;;;14.30;99.90;;;;;;5110382;28;19927;-75
2022/06/19 03:45:49;;;;;;;;;;;14.30;99.90;;;;;;5074736;28;19936;-75
2022/06/19 03:48:14;;;;;;;;;;;14.30;99.90;;;;;;5091493;28;20448;-75
2022/06/19 03:50:41;;;;;;;;;;;14.20;99.90;;;;;;5110293;28;19923;-74
2022/06/19 03:53:07;;;;;;;;;;;14.10;99.90;;;;;;5049901;28;19926;-75
2022/06/19 03:55:33;;;;;;;;;;;14.10;99.90;;;;;;5011564;28;19956;-75
2022/06/19 03:57:59;;;;;;;;;;;14.10;99.90;;;;;;5009804;28;20315;-75
2022/06/19 04:00:24;;;;;;;;;;;14.10;99.90;;;;;;5009979;28;19978;-75
2022/06/19 04:02:50;;;;;;;;;;;14.10;99.90;;;;;;5008387;28;19925;-75
2022/06/19 04:05:15;;;;;;;;;;;14.10;99.90;;;;;;5009107;28;19936;-75
2022/06/19 04:07:41;;;;;;;;;;;14.00;99.90;;;;;;5012943;28;19924;-75
2022/06/19 04:10:08;;;;;;;;;;;13.90;99.90;;;;;;4999555;28;19932;-76
2022/06/19 04:12:33;;;;;;;;;;;13.80;99.90;;;;;;5031447;28;20340;-75
2022/06/19 04:14:59;;;;;;;;;;;13.70;99.90;;;;;;5052046;28;19925;-75
2022/06/19 04:17:25;;;;;;;;;;;13.60;99.90;;;;;;5008251;28;19929;-75
2022/06/19 04:19:53;;;;;;;;;;;13.50;99.90;;;;;;5008137;28;20349;-74
2022/06/19 04:22:19;;;;;;;;;;;13.50;99.90;;;;;;5011775;28;19925;-75
2022/06/19 04:24:44;;;;;;;;;;;13.50;99.90;;;;;;5010282;28;20461;-75
2022/06/19 04:27:10;;;;;;;;;;;13.40;99.90;;;;;;5014061;28;19936;-75
2022/06/19 04:29:35;;;;;;;;;;;13.40;99.90;;;;;;5011013;28;19932;-76
2022/06/19 04:32:01;;;;;;;;;;;13.30;99.90;;;;;;5015184;28;19932;-75
2022/06/19 04:34:27;;;;;;;;;;;13.30;99.90;;;;;;5009540;28;19925;-75
2022/06/19 04:36:52;;;;;;;;;;;13.20;99.90;;;;;;5010760;28;19965;-75
2022/06/19 04:39:18;;;;;;;;;;;13.20;99.90;;;;;;5008997;28;19933;-75
2022/06/19 04:41:43;;;;;;;;;;;13.10;99.90;;;;;;5028620;28;19985;-75
2022/06/19 04:44:11;;;;;;;;;;;13.10;99.90;;;;;;5109996;28;19928;-75
2022/06/19 04:46:36;;;;;;;;;;;13.10;99.90;;;;;;5108434;28;19930;-75
2022/06/19 04:49:02;;;;;;;;;;;13.10;99.90;;;;;;5110621;28;19923;-75
2022/06/19 04:51:28;;;;;;;;;;;13.10;99.90;;;;;;5106994;28;19931;-75
2022/06/19 04:53:53;;;;;;;;;;;13.10;99.90;;;;;;5107927;28;20438;-75
2022/06/19 04:56:19;;;;;;;;;;;13.10;99.90;;;;;;5103920;28;20317;-75
2022/06/19 04:58:46;;;;;;;;;;;13.10;99.90;;;;;;5064356;28;19925;-75
2022/06/19 05:01:18;;;;;;;;;;;13.20;99.90;;;;;;5094769;28;19981;-75
2022/06/19 05:03:43;;;;;;;;;;;13.30;99.90;;;;;;5106913;28;19947;-75
2022/06/19 05:06:09;;;;;;;;;;;13.40;99.90;;;;;;5100523;28;20303;-75
2022/06/19 05:08:34;;;;;;;;;;;13.40;99.90;;;;;;5106036;28;19923;-75
2022/06/19 05:11:00;;;;;;;;;;;13.40;99.90;;;;;;5099096;28;19928;-75
2022/06/19 05:13:26;;;;;;;;;;;13.50;99.90;;;;;;5057207;28;19932;-75
2022/06/19 05:16:00;;;;;;;;;;;13.50;99.90;;;;;;5092155;28;19924;-75
2022/06/19 05:18:26;;;;;;;;;;;13.60;99.90;;;;;;5098349;28;19946;-75
2022/06/19 05:20:55;;;;;;;;;;;13.60;99.90;;;;;;5095552;28;19924;-75
2022/06/19 05:23:20;;;;;;;;;;;13.60;99.90;;;;;;5093538;28;19969;-75
2022/06/19 05:25:46;;;;;;;;;;;13.60;99.90;;;;;;5096025;28;20387;-75
2022/06/19 05:28:11;;;;;;;;;;;13.60;99.90;;;;;;5093696;28;19931;-75
2022/06/19 05:30:37;;;;;;;;;;;13.60;99.90;;;;;;5097790;28;19931;-75
2022/06/19 05:33:02;;;;;;;;;;;13.60;99.90;;;;;;5076340;28;19924;-75
2022/06/19 05:35:28;;;;;;;;;;;13.60;99.90;;;;;;5093411;28;20290;-76
2022/06/19 05:37:53;;;;;;;;;;;13.60;99.90;;;;;;5092650;28;19934;-74
2022/06/19 05:40:19;;;;;;;;;;;13.60;99.90;;;;;;5059712;28;19925;-75
2022/06/19 05:42:46;;;;;;;;;;;13.60;99.90;;;;;;5007457;28;20477;-75
2022/06/19 05:45:11;;;;;;;;;;;13.70;99.90;;;;;;5026976;28;20340;-75
2022/06/19 05:47:37;;;;;;;;;;;13.70;99.90;;;;;;5075360;28;19926;-74
2022/06/19 05:50:02;;;;;;;;;;;13.70;99.90;;;;;;5027639;28;19923;-75
2022/06/19 05:52:28;;;;;;;;;;;13.80;99.90;;;;;;5109168;27;20011;-75
2022/06/19 05:54:53;;;;;;;;;;;13.80;99.90;;;;;;5041317;28;19974;-75
2022/06/19 05:57:19;;;;;;;;;;;13.80;99.90;;;;;;5089618;28;19924;-74
2022/06/19 05:59:45;;;;;;;;;;;13.80;99.90;;;;;;5038728;28;19925;-75
2022/06/19 06:02:15;;;;;;;;;;;13.70;99.90;;;;;;5006148;28;19925;-75
2022/06/19 06:04:40;;;;;;;;;;;13.70;99.90;;;;;;5008101;28;19929;-75
2022/06/19 06:07:08;;;;;;;;;;;13.60;99.90;;;;;;5007438;28;19926;-75
2022/06/19 06:09:34;;;;;;;;;;;13.70;99.90;;;;;;5012066;28;20004;-75
2022/06/19 06:11:59;;;;;;;;;;;13.60;99.90;;;;;;5069188;28;20008;-75
2022/06/19 06:14:25;;;;;;;;;;;13.60;99.90;;;;;;5007767;28;20008;-75
2022/06/19 06:16:50;;;;;;;;;;;13.60;99.90;;;;;;5010210;28;19996;-74
2022/06/19 06:19:16;;;;;;;;;;;13.50;99.90;;;;;;5071519;28;19936;-75
2022/06/19 06:21:42;;;;;;;;;;;13.60;99.90;;;;;;5010408;28;19929;-75
2022/06/19 06:24:08;;;;;;;;;;;13.60;99.90;;;;;;5008999;28;20044;-75
2022/06/19 06:26:34;;;;;;;;;;;13.60;99.90;;;;;;5011423;28;19932;-74
2022/06/19 06:29:00;;;;;;;;;;;13.60;99.90;;;;;;5000557;28;19929;-75
2022/06/19 06:31:25;;;;;;;;;;;13.60;99.90;;;;;;5014304;28;19932;-74
2022/06/19 06:33:51;;;;;;;;;;;13.60;99.90;;;;;;4999556;28;19925;-75
2022/06/19 06:36:17;;;;;;;;;;;13.60;99.90;;;;;;5016174;28;19936;-74
2022/06/19 06:38:43;;;;;;;;;;;13.60;99.90;;;;;;5012715;28;20391;-75
2022/06/19 06:41:09;;;;;;;;;;;13.60;99.90;;;;;;5013780;28;19926;-75
2022/06/19 06:43:36;;;;;;;;;;;13.70;99.90;;;;;;5001790;28;20020;-75
2022/06/19 06:46:09;;;;;;;;;;;13.70;99.90;;;;;;5016227;28;20387;-75
2022/06/19 06:48:35;;;;;;;;;;;13.80;99.90;;;;;;5011829;28;19932;-74
2022/06/19 06:51:04;;;;;;;;;;;13.90;99.90;;;;;;5010070;28;19926;-75
2022/06/19 06:53:29;;;;;;;;;;;14.00;99.90;;;;;;5050281;28;19950;-74
2022/06/19 06:55:56;;;;;;;;;;;14.00;99.90;;;;;;5038614;28;19925;-74
2022/06/19 06:58:21;;;;;;;;;;;14.10;99.90;;;;;;5008617;28;20012;-75
2022/06/19 07:00:47;;;;;;;;;;;14.10;99.90;;;;;;5009055;28;20017;-75
2022/06/19 07:03:12;;;;;;;;;;;14.10;99.90;;;;;;5008723;28;19930;-75
2022/06/19 07:05:38;;;;;;;;;;;14.10;99.90;;;;;;5011058;28;19932;-74
2022/06/19 07:08:05;;;;;;;;;;;14.10;99.90;;;;;;5010415;28;19929;-75
2022/06/19 07:10:30;;;;;;;;;;;14.10;99.90;;;;;;5009797;28;19925;-75
2022/06/19 07:12:56;;;;;;;;;;;14.10;99.90;;;;;;5047784;28;20801;-75
2022/06/19 07:15:21;;;;;;;;;;;14.20;99.90;;;;;;5092867;28;20338;-74
2022/06/19 07:17:47;;;;;;;;;;;14.30;99.90;;;;;;5110684;28;19931;-74
2022/06/19 07:20:12;;;;;;;;;;;14.30;99.90;;;;;;5111384;28;19986;-75
2022/06/19 07:22:38;;;;;;;;;;;14.30;99.90;;;;;;5112585;28;20040;-75
2022/06/19 07:25:04;;;;;;;;;;;14.30;99.90;;;;;;5092693;28;20026;-74
2022/06/19 07:27:30;;;;;;;;;;;14.30;99.90;;;;;;5073272;28;19933;-74
2022/06/19 07:29:56;;;;;;;;;;;14.30;99.90;;;;;;5081799;28;19924;-75
2022/06/19 07:32:21;;;;;;;;;;;14.30;99.90;;;;;;5093239;28;19931;-76
2022/06/19 07:34:46;;;;;;;;;;;14.30;99.90;;;;;;5107321;28;19924;-75
2022/06/19 07:37:13;;;;;;;;;;;14.30;99.90;;;;;;5107484;28;19924;-75
2022/06/19 07:39:39;;;;;;;;;;;14.30;99.90;;;;;;5051185;28;19933;-75
2022/06/19 07:42:08;;;;;;;;;;;14.40;99.90;;;;;;5056461;28;20000;-75
2022/06/19 07:44:37;;;;;;;;;;;14.50;99.90;;;;;;5003893;28;19937;-75
2022/06/19 07:52:32;;;;;;;;;;;14.70;99.90;;;;;;5009980;28;19925;-75
2022/06/19 07:54:58;;;;;;;;;;;14.80;99.90;;;;;;5021550;28;20772;-75
2022/06/19 07:57:24;;;;;;;;;;;14.80;99.90;;;;;;5024652;28;19971;-75
2022/06/19 07:59:49;;;;;;;;;;;14.90;99.90;;;;;;5024045;28;19940;-75
2022/06/19 08:02:15;;;;;;;;;;;14.90;99.90;;;;;;5014886;28;20379;-75
2022/06/19 08:04:40;;;;;;;;;;;15.00;99.90;;;;;;5011042;28;20269;-75
2022/06/19 08:07:06;;;;;;;;;;;15.00;99.90;;;;;;5007616;28;19925;-76
2022/06/19 08:09:31;;;;;;;;;;;15.00;99.90;;;;;;4994113;28;19926;-75
2022/06/19 08:11:57;;;;;;;;;;;15.00;99.90;;;;;;5020511;28;19932;-75
2022/06/19 08:14:22;;;;;;;;;;;15.00;99.90;;;;;;5026248;28;19961;-75
2022/06/19 08:16:48;;;;;;;;;;;15.00;99.90;;;;;;5009831;28;19968;-75
2022/06/19 08:19:13;;;;;;;;;;;15.10;99.90;;;;;;5009566;28;20337;-75
2022/06/19 08:21:39;;;;;;;;;;;15.10;99.90;;;;;;5013277;28;19980;-75
2022/06/19 08:24:05;;;;;;;;;;;15.10;99.90;;;;;;5009680;28;20020;-73
2022/06/19 08:26:31;;;;;;;;;;;15.10;99.90;;;;;;5028889;28;19948;-74
2022/06/19 08:29:02;;;;;;;;;;;15.10;99.90;;;;;;5054398;28;20020;-74
2022/06/19 08:31:29;;;;;;;;;;;15.10;99.90;;;;;;5040506;28;19925;-74
2022/06/19 08:33:55;;;;;;;;;;;15.10;99.90;;;;;;5035872;28;20501;-74
2022/06/19 08:36:21;;;;;;;;;;;15.10;99.90;;;;;;5071260;28;19994;-74
2022/06/19 08:38:49;;;;;;;;;;;15.10;99.90;;;;;;5016155;28;19929;-75
2022/06/19 08:41:28;;;;;;;;;;;15.20;99.90;;;;;;5049578;28;19926;-75
2022/06/19 08:44:14;;;;;;;;;;;15.20;99.90;;;;;;5070005;28;19931;-75
2022/06/19 08:46:46;;;;;;;;;;;15.40;99.90;;;;;;5068212;28;19924;-74
2022/06/19 08:49:32;;;;;;;;;;;15.40;99.90;;;;;;5053742;28;19977;-74
2022/06/19 08:52:12;;;;;;;;;;;15.60;99.90;;;;;;4997999;28;19929;-74
2022/06/19 08:54:50;;;;;;;;;;;15.70;99.90;;;;;;5029473;28;19924;-74
2022/06/19 08:57:50;;;;;;;7.95;1.15;;;15.80;99.90;;;;;;5074740;28;19924;-74
2022/06/19 09:00:23;;;;;;;9.75;1.65;;;15.90;99.90;;;;;;5056798;28;20424;-74
2022/06/19 09:03:03;;;;;;;7.43;1.30;;;15.90;99.90;;;;;;5052351;28;20432;-74
2022/06/19 09:05:39;;;;;;;9.03;1.60;;;16.00;99.90;;;;;;5101926;28;20953;-74
2022/06/19 09:08:16;;;;;;;8.23;1.15;;;16.00;99.90;;;;;;5068939;28;20452;-75
2022/06/19 09:11:14;;;;;;;8.52;1.38;;;15.90;99.90;;;;;;5067761;28;20495;-74
2022/06/19 09:14:06;;;;;;;5.53;0.80;;;15.90;99.90;;;;;;5026858;28;20428;-74
2022/06/19 09:16:37;;;;;;;6.45;1.23;;;15.80;99.90;;;;;;5074108;28;20517;-74
2022/06/19 09:19:14;;;;;;;7.97;0.95;;;15.80;99.90;;;;;;5036692;28;20680;-75
2022/06/19 09:22:27;;;;;;;7.80;1.43;;;15.80;99.90;;;;;;5025761;28;20471;-74
2022/06/19 09:24:53;;;;;;;8.02;1.27;;;15.80;99.90;;;;;;4981987;28;20450;-74
2022/06/19 09:27:27;;;;;;;8.10;1.43;;;15.90;99.90;;;;;;5080038;28;20477;-75
2022/06/19 09:30:10;;;;;;;6.37;1.27;;;16.00;99.90;;;;;;5017176;28;20409;-74
2022/06/19 09:33:08;;;;;;;6.53;0.90;;;16.10;99.90;;;;;;5039984;28;20400;-75
2022/06/19 09:35:41;;;;;;;6.65;1.00;;;16.20;99.90;;;;;;4992689;28;20428;-74
2022/06/19 09:38:13;;;;;;;5.85;0.90;;;16.30;99.90;;;;;;5069729;28;20401;-74
2022/06/19 09:40:43;;;;;;;8.18;1.10;;;16.40;99.90;;;;;;5049989;28;20420;-74
2022/06/19 09:43:34;;;;;;;9.00;0.90;;;16.50;99.90;;;;;;5025788;28;20456;-74
2022/06/19 09:46:17;;;;;;;3.95;0.70;;;16.50;99.90;;;;;;5006393;28;20413;-74
2022/06/19 09:48:48;;;;;;;7.25;1.00;;;16.40;99.90;;;;;;4993915;28;20490;-74
2022/06/19 09:51:26;;;;;;;5.70;0.75;;;16.30;99.90;;;;;;5048449;28;20517;-74
2022/06/19 09:54:00;;;;;;;4.47;0.88;;;16.30;99.90;;;;;;5003650;28;20448;-74
2022/06/19 09:56:44;;;;;;;7.43;1.10;;;16.30;99.90;;;;;;5025828;28;20519;-75
2022/06/19 09:59:35;;;;;;;5.35;0.65;;;16.20;99.90;;;;;;4994809;28;20429;-74
2022/06/19 10:02:11;;;;;;;5.45;0.90;;;16.10;99.90;;;;;;5030940;28;20477;-74
2022/06/19 10:04:52;;;;;;;6.13;1.03;;;16.20;99.90;;;;;;5046581;27;20429;-74
2022/06/19 10:07:51;;;;;;;9.80;1.40;;;16.20;99.90;;;;;;4995924;28;20961;-74
2022/06/19 10:10:58;;;;;;;5.65;0.90;;;16.20;99.90;;;;;;5047000;28;20421;-74
2022/06/19 10:13:48;;;;;;;4.88;0.82;;;16.40;99.90;;;;;;5005545;28;20481;-74
2022/06/19 10:16:22;;;;;;;6.10;0.90;;;16.50;99.90;;;;;;5007120;28;20542;-74
2022/06/19 10:18:52;;;;;;;17.50;1.52;;;16.60;99.90;;;;;;5061691;28;20473;-74
2022/06/19 10:24:53;;;;;;;3.90;0.70;;;16.80;99.90;;;;;;5039015;28;20928;-74
2022/06/19 10:27:44;;;;;;;4.97;1.05;;;16.90;99.90;;;;;;5035532;28;20424;-74
2022/06/19 10:30:25;;;;;;;4.75;1.10;;;17.00;99.90;;;;;;5015085;28;20417;-74
2022/06/19 10:33:19;;;;;;;4.15;0.80;;;17.10;99.90;;;;;;5014579;28;20508;-73
2022/06/19 10:35:56;;;;;;;3.60;0.60;;;17.20;99.90;;;;;;5016437;28;20424;-74
2022/06/19 10:39:07;;;;;;;4.05;0.65;;;17.30;99.90;;;;;;5008900;28;20413;-74
2022/06/19 10:42:06;;;;;;;3.05;0.50;;;17.30;99.90;;;;;;5007365;28;20421;-74
2022/06/19 10:45:08;;;;;;;3.25;0.38;;;17.30;99.90;;;;;;5013720;28;20445;-75
2022/06/19 10:47:57;;;;;;;2.50;0.50;;;17.20;99.90;;;;;;5062860;28;21090;-74
2022/06/19 10:50:35;;;;;;;2.75;0.20;;;17.10;99.90;;;;;;5003249;28;20482;-74
2022/06/19 10:53:33;;;;;;;2.10;0.32;;;16.90;99.90;;;;;;5038380;28;20409;-74
2022/06/19 10:56:21;;;;;;;1.25;0.25;;;16.80;99.90;;;;;;5029214;28;20434;-74
2022/06/19 10:58:46;;;;;;;1.95;0.43;;;16.80;99.90;;;;;;5005489;28;20459;-74
2022/06/19 11:04:07;;;;;;;3.00;0.33;;;16.80;99.90;;;;;;5024608;28;20453;-74
2022/06/19 11:04:07;;;;;;;2.42;0.47;;;16.80;99.90;;;;;;5022302;28;20497;-74
2022/06/19 11:06:34;;;;;;;2.85;0.40;;;16.80;99.90;;;;;;5009315;28;20412;-75
2022/06/19 11:09:19;;;;;;;2.90;0.50;;;16.60;99.90;;;;;;5002733;28;20492;-75
2022/06/19 11:11:48;;;;;;;1.90;0.25;;;16.60;99.90;;;;;;5022238;28;20428;-75
2022/06/19 11:14:29;;;;;;;2.27;0.20;;;16.50;99.90;;;;;;5005977;28;20442;-75
2022/06/19 11:17:05;;;;;;;;;;;16.40;99.90;;;;;;5025688;28;20646;-75
2022/06/19 11:19:30;;;;;;;;;;;16.40;99.90;;;;;;5007113;28;19932;-74
2022/06/19 11:21:56;;;;;;;;;;;16.40;99.90;;;;;;5028740;28;19920;-75
2022/06/19 11:24:26;;;;;;;;;;;16.40;99.90;;;;;;5021970;28;20295;-75
2022/06/19 11:26:52;;;;;;;;;;;16.40;99.90;;;;;;5033314;28;20001;-76
2022/06/19 11:29:20;;;;;;;;;;;16.40;99.90;;;;;;5015741;28;20437;-76
2022/06/19 11:31:58;;;;;;;;;;;16.40;99.90;;;;;;5014927;28;19926;-76
2022/06/19 11:37:08;;;;;;;;;;;16.40;99.90;;;;;;5019119;28;19961;-75
2022/06/19 11:39:37;;;;;;;;;;;16.30;99.90;;;;;;5077843;28;20988;-76
2022/06/19 11:42:18;;;;;;;;;;;16.30;99.90;;;;;;5084812;28;20146;-75
2022/06/19 11:44:51;;;;;;;;;;;16.20;99.90;;;;;;5072794;28;19970;-75
2022/06/19 11:47:18;;;;;;;;;;;16.10;99.90;;;;;;5098098;28;19924;-75
2022/06/19 11:49:44;;;;;;;;;;;16.10;99.90;;;;;;5105989;28;19924;-76
2022/06/19 11:52:17;;;;;;;;;;;16.10;99.90;;;;;;5053940;28;19950;-76
2022/06/19 11:54:46;;;;;;;;;;;16.00;99.90;;;;;;5044580;28;20033;-75
2022/06/19 11:57:23;;;;;;;;;;;16.00;99.90;;;;;;5060032;28;19927;-74
2022/06/19 11:59:54;;;;;;;;;;;16.00;99.90;;;;;;5106729;28;19919;-75
2022/06/19 12:02:24;;;;;;;;;;;16.00;99.90;;;;;;5019820;28;19928;-76
2022/06/19 12:04:53;;;;;;;;;;;16.00;99.90;;;;;;5009180;28;19921;-75
2022/06/19 12:07:20;;;;;;;;;;;16.10;99.90;;;;;;5093404;28;19920;-75
2022/06/19 12:09:52;;;;;;;;;;;16.10;99.90;;;;;;5028614;28;19928;-75
2022/06/19 12:12:19;;;;;;;;;;;16.10;99.90;;;;;;5059707;28;19929;-76
2022/06/19 12:14:53;;;;;;;;;;;16.10;99.90;;;;;;5107535;28;19962;-75
2022/06/19 12:17:20;;;;;;;;;;;16.10;99.90;;;;;;5111494;28;20395;-75
2022/06/19 12:19:51;;;;;;;;;;;16.20;99.90;;;;;;5012992;27;19925;-76
2022/06/19 12:22:19;;;;;;;;;;;16.20;99.90;;;;;;4992245;28;19929;-75
2022/06/19 12:25:01;;;;;;;;;;;16.20;99.90;;;;;;5034307;28;19972;-75
2022/06/19 12:27:31;;;;;;;;;;;16.20;99.90;;;;;;5008651;28;20004;-75
2022/06/19 12:29:59;;;;;;;;;;;16.20;99.90;;;;;;5008833;28;20009;-75
2022/06/19 12:32:31;;;;;;;;;;;16.20;99.90;;;;;;5059118;28;20376;-76
2022/06/19 12:35:06;;;;;;;;;;;16.30;99.90;;;;;;5102403;28;19924;-74
2022/06/19 12:37:31;;;;;;;;;;;16.30;99.90;;;;;;5081751;28;19922;-75
2022/06/19 12:39:57;;;;;;;;;;;16.40;99.90;;;;;;5009281;28;20004;-75
2022/06/19 12:42:46;;;;;;;;;;;16.50;99.90;;;;;;5104883;28;20010;-75
2022/06/19 12:45:30;;;;;;;;;;;16.60;99.90;;;;;;5107674;28;19920;-75
2022/06/19 12:48:05;;;;;;;;;;;16.70;99.90;;;;;;5110376;28;19949;-76
2022/06/19 12:50:36;;;;;;;;;;;17.00;99.90;;;;;;5085403;28;19922;-76
2022/06/19 12:53:12;;;;;;;;;;;17.20;99.90;;;;;;5044273;28;20290;-75
2022/06/19 12:55:41;;;;;;;;;;;17.50;99.90;;;;;;5076009;28;19921;-76
2022/06/19 12:58:06;;;;;;;;;;;17.90;99.90;;;;;;5108348;28;19920;-76
2022/06/19 13:00:32;;;;;;;;;;;18.20;99.90;;;;;;5103048;28;20280;-76
2022/06/19 13:03:05;;;;;;;;;;;18.30;99.90;;;;;;5008269;28;19921;-76
2022/06/19 13:05:48;;;;;;;;;;;18.20;99.90;;;;;;5017557;28;19921;-76
2022/06/19 13:08:19;;;;;;;;;;;18.00;99.90;;;;;;5108564;28;19963;-76
2022/06/19 13:10:58;;;;;;;;;;;17.90;99.90;;;;;;5084034;28;19931;-76
2022/06/19 13:13:30;;;;;;;;;;;17.80;99.90;;;;;;5008303;28;19927;-75
2022/06/19 13:16:00;;;;;;;;;;;17.70;99.90;;;;;;5031574;28;19920;-76
2022/06/19 13:18:34;;;;;;;;;;;17.70;99.90;;;;;;5101420;28;20668;-75
2022/06/19 13:21:02;;;;;;;;;;;17.80;99.90;;;;;;5008262;28;19979;-76
2022/06/19 13:23:31;;;;;;;;;;;18.00;99.90;;;;;;5076346;28;20378;-75
2022/06/19 13:26:05;;;;;;;;;;;18.20;99.90;;;;;;5008785;28;20393;-75
2022/06/19 13:28:31;;;;;;;;;;;18.30;99.90;;;;;;5062886;28;19957;-75
2022/06/19 13:31:15;;;;;;;;;;;18.30;99.90;;;;;;5054392;28;19968;-76
2022/06/19 13:33:56;;;;;;;;;;;18.30;99.90;;;;;;5107352;28;20498;-76
2022/06/19 13:36:30;;;;;;;;;;;18.50;99.90;;;;;;5084758;28;20272;-76
2022/06/19 13:39:09;;;;;;;;;;;18.60;99.90;;;;;;5036278;28;20367;-75
2022/06/19 13:41:44;;;;;;;;;;;18.70;99.60;;;;;;5038216;28;19920;-74
2022/06/19 13:44:21;;;;;;;;;;;18.80;99.40;;;;;;5042460;28;19925;-76
2022/06/19 13:47:08;;;;;;;;;;;18.90;98.80;;;;;;5023265;28;20302;-75
2022/06/19 13:49:37;;;;;;;;;;;19.10;98.90;;;;;;5034793;28;19974;-75
2022/06/19 13:52:21;;;;;;;;;;;19.40;98.70;;;;;;5016154;28;19929;-76
2022/06/19 13:55:05;;;;;;;;;;;19.60;98.00;;;;;;5010483;28;19925;-75
2022/06/19 13:57:53;;;;;;;;;;;19.70;96.70;;;;;;5014054;28;19919;-76
2022/06/19 14:00:27;;;;;;;;;;;19.80;96.30;;;;;;5073867;28;19920;-76
2022/06/19 14:03:09;;;;;;;2.78;0.40;;;20.00;96.30;;;;;;5009679;28;19926;-76
2022/06/19 14:05:37;;;;;;;5.10;0.60;;;20.10;95.80;;;;;;5008000;28;20088;-75
2022/06/19 14:08:31;;;;;;;5.38;0.63;;;20.20;95.20;;;;;;5007840;28;20061;-76
2022/06/19 14:11:03;;;;;;;3.33;0.60;;;20.40;95.90;;;;;;5055347;28;20429;-76
2022/06/19 14:13:37;;;;;;;3.80;0.68;;;20.70;94.00;;;;;;5073858;28;20485;-76
2022/06/19 14:16:03;;;;;;;4.60;0.75;;;20.90;92.90;;;;;;5050491;28;20770;-76
2022/06/19 14:18:35;;;;;;;6.70;0.70;;;21.10;92.60;;;;;;5037199;28;20417;-76
2022/06/19 14:21:20;;;;;;;4.38;0.68;;;21.30;92.70;;;;;;5060371;28;20925;-75
2022/06/19 14:23:52;;;;;;;3.47;0.80;;;21.50;92.40;;;;;;5048204;28;21355;-76
2022/06/19 14:26:39;;;;;;;6.95;1.08;;;21.50;92.20;;;;;;5023038;28;20447;-76
2022/06/19 14:29:34;;;;;;;5.22;0.60;;;21.70;92.30;;;;;;5004782;28;20425;-76
2022/06/19 14:32:00;;;;;;;5.30;0.73;;;21.50;91.20;;;;;;4993461;28;20401;-76
2022/06/19 14:34:58;;;;;;;2.97;0.63;;;21.50;92.00;;;;;;5006846;28;20406;-76